Decoded Metar for KLEE (LEESBURG in FL, USA) (IATA:LEE) | Meteo·Mobile Aviation Weather
aviador You're here:

KLEE Decoded Metar

LEESBURG in FL, USA
Report Time2018-09-24 18:53:00
UTC Time2018-09-24 19:14:20
Flight Rules vfr VFR
Wind180° at 05 kt
W.Decomp.*RWY 21: 4.5 kt HW 2.1 kt LCW
RWY 13: 2.9 kt HW 4.1 kt RCW
W.Rank180° ranks 3
Current wind is below 180° avg. (6.6)
Visibility9999 m
Phenomena:N/A
Clouds:N/A
Expected CloudBase > 5,200 ft AGL from Temp-Dew spread
CeilingNone
Temp34°C (ISA +19)
Dew Point21°C (47% RH)
Heat Index37.4°C
QNH1017 hPa
Density Alt2,448 ft
Elevation75 ft
Report Wrong Elevation
Raw Report
METAR KLEE 241853Z 18005KT 10SM CLR 34/21 A3002 RMK AO2 SLP163 T03390211=

Extra information for KLEE:More info

Metar Taf Metar & Taf Last 4 Metars F.Rules Stats Wind Profile Meteogram Temp Stats Airport Information Weather charts Add Link Nearby VenuesMetar ALERT Operation Metar Decoded Social comments

AIRNAV info for KLEE